createdAt,value
2022-12-08T00:02:07.450Z,99218.81
2022-12-08T00:04:55.513Z,99213.88
2022-12-08T00:07:42.612Z,99198.94
2022-12-08T00:10:46.585Z,99221.69
2022-12-08T00:12:59.174Z,99215.44
2022-12-08T00:15:27.194Z,99209.22
2022-12-08T00:17:55.073Z,99215.72
2022-12-08T00:20:23.160Z,99213.94
2022-12-08T00:22:52.521Z,99200.09
2022-12-08T00:25:20.452Z,99200.91
2022-12-08T00:27:48.418Z,99207.25
2022-12-08T00:30:16.522Z,99219.75
2022-12-08T00:32:44.573Z,99206.16
2022-12-08T00:35:12.562Z,99220.13
2022-12-08T00:37:40.447Z,99211.50
2022-12-08T00:40:10.620Z,99211.84
2022-12-08T00:42:38.592Z,99205.78
2022-12-08T00:45:07.007Z,99194.09
2022-12-08T00:47:34.939Z,99192.78
2022-12-08T00:50:03.226Z,99193.44
2022-12-08T00:52:31.404Z,99188.44
2022-12-08T00:54:59.284Z,99199.56
2022-12-08T00:57:28.657Z,99199.91
2022-12-08T00:59:57.500Z,99204.31
2022-12-08T01:02:25.887Z,99204.63
2022-12-08T01:04:54.110Z,99208.53
2022-12-08T01:07:22.040Z,99203.22
2022-12-08T01:09:49.916Z,99197.19
2022-12-08T01:12:17.810Z,99197.19
2022-12-08T01:14:47.253Z,99204.91
2022-12-08T01:17:15.441Z,99213.66
2022-12-08T01:19:43.396Z,99208.88
2022-12-08T01:22:11.311Z,99212.97
2022-12-08T01:24:39.310Z,99210.81
2022-12-08T01:27:07.229Z,99211.50
2022-12-08T01:29:35.794Z,99196.00
2022-12-08T01:32:05.460Z,99192.44
2022-12-08T01:34:33.356Z,99204.00
2022-12-08T01:37:01.207Z,99201.78
2022-12-08T01:39:30.081Z,99204.88
2022-12-08T01:41:58.036Z,99195.50
2022-12-08T01:44:44.889Z,99207.75
2022-12-08T01:47:14.287Z,99210.78
2022-12-08T01:49:42.253Z,99206.13
2022-12-08T01:52:12.582Z,99199.50
2022-12-08T01:54:42.661Z,99197.72
2022-12-08T01:57:13.191Z,99200.47
2022-12-08T01:59:43.365Z,99202.25
2022-12-08T02:02:12.219Z,99196.25
2022-12-08T02:04:41.603Z,99197.50
2022-12-08T02:07:13.392Z,99207.69
2022-12-08T02:09:42.947Z,99196.25
2022-12-08T02:12:11.621Z,99200.72
2022-12-08T02:15:05.123Z,99201.91
2022-12-08T02:17:39.269Z,99185.16
2022-12-08T02:20:35.108Z,99185.81
2022-12-08T02:23:05.414Z,99190.72
2022-12-08T02:25:39.705Z,99180.28
2022-12-08T02:28:17.679Z,99174.19
2022-12-08T02:30:51.796Z,99170.56
2022-12-08T02:33:34.802Z,99159.44
2022-12-08T02:36:06.255Z,99146.69
2022-12-08T02:38:41.522Z,99164.09
2022-12-08T02:41:17.175Z,99156.00
2022-12-08T02:43:46.736Z,99161.94
2022-12-08T02:46:17.048Z,99165.16
2022-12-08T02:48:45.122Z,99169.56
2022-12-08T02:51:14.435Z,99161.59
2022-12-08T02:53:42.836Z,99150.63
2022-12-08T02:56:18.401Z,99146.13
2022-12-08T02:58:58.702Z,99158.28
2022-12-08T03:01:34.773Z,99162.69
2022-12-08T03:04:07.587Z,99156.59
2022-12-08T03:06:43.704Z,99147.75
2022-12-08T03:09:13.775Z,99144.88
2022-12-08T03:11:43.924Z,99149.06
2022-12-08T03:14:13.591Z,99148.63
2022-12-08T03:16:43.047Z,99139.28
2022-12-08T03:19:13.606Z,99138.13
2022-12-08T03:21:44.839Z,99143.47
2022-12-08T03:24:14.052Z,99142.91
2022-12-08T03:26:45.255Z,99134.94
2022-12-08T03:29:13.678Z,99145.06
2022-12-08T03:31:44.169Z,99135.28
2022-12-08T03:34:13.887Z,99143.53
2022-12-08T03:36:44.617Z,99134.47
2022-12-08T03:39:12.659Z,99125.97
2022-12-08T03:41:40.567Z,99129.28
2022-12-08T03:44:08.874Z,99127.56
2022-12-08T03:46:36.758Z,99114.84
2022-12-08T03:49:05.010Z,99099.78
2022-12-08T03:51:32.957Z,99115.75
2022-12-08T03:54:02.390Z,99122.28
2022-12-08T03:56:31.905Z,99117.03
2022-12-08T03:59:00.474Z,99109.06
2022-12-08T04:01:28.696Z,99119.19
2022-12-08T04:03:56.789Z,99107.78
2022-12-08T04:06:25.190Z,99104.69
2022-12-08T04:08:53.361Z,99111.47
2022-12-08T04:11:22.964Z,99108.59
2022-12-08T04:13:50.853Z,99101.97
2022-12-08T04:16:20.205Z,99100.94
2022-12-08T04:18:48.351Z,99097.28
2022-12-08T04:21:16.251Z,99094.34
2022-12-08T04:23:44.526Z,99102.63
2022-12-08T04:26:14.314Z,99099.22
2022-12-08T04:28:43.750Z,99104.91
2022-12-08T04:31:11.899Z,99111.44
2022-12-08T04:33:40.054Z,99116.72
2022-12-08T04:36:08.783Z,99112.59
2022-12-08T04:38:36.789Z,99101.31
2022-12-08T04:41:04.762Z,99118.41
2022-12-08T04:43:32.732Z,99104.34
2022-12-08T04:46:02.138Z,99102.13
2022-12-08T04:48:30.195Z,99117.00
2022-12-08T04:50:58.081Z,99111.78
2022-12-08T04:53:26.860Z,99104.06
2022-12-08T04:55:54.811Z,99105.34
2022-12-08T04:58:23.054Z,99104.59
2022-12-08T05:00:51.223Z,99102.50
2022-12-08T05:03:26.885Z,99092.63
2022-12-08T05:05:56.604Z,99094.25
2022-12-08T05:08:24.856Z,99092.47
2022-12-08T05:10:52.870Z,99066.16
2022-12-08T05:13:20.808Z,99099.53
2022-12-08T05:15:48.963Z,99087.94
2022-12-08T05:18:17.085Z,99097.63
2022-12-08T05:20:46.545Z,99098.16
2022-12-08T05:23:14.479Z,99079.63
2022-12-08T05:25:42.496Z,99061.09
2022-12-08T05:28:39.532Z,99094.16
2022-12-08T05:30:59.219Z,99079.88
2022-12-08T05:33:27.238Z,99075.34
2022-12-08T05:35:56.764Z,99090.03
2022-12-08T05:38:24.817Z,99086.84
2022-12-08T05:40:52.841Z,99083.31
2022-12-08T05:43:20.794Z,99091.19
2022-12-08T05:45:48.799Z,99088.25
2022-12-08T05:48:17.085Z,99081.84
2022-12-08T05:50:47.326Z,99083.97
2022-12-08T05:53:16.855Z,99079.28
2022-12-08T05:55:44.939Z,99097.69
2022-12-08T05:58:14.197Z,99097.69
2022-12-08T06:00:42.378Z,99100.41
2022-12-08T06:03:12.316Z,99088.97
2022-12-08T06:05:41.427Z,99088.22
2022-12-08T06:08:09.621Z,99083.69
2022-12-08T06:10:40.442Z,99084.78
2022-12-08T06:13:08.566Z,99080.78
2022-12-08T06:15:36.512Z,99072.69
2022-12-08T06:18:04.730Z,99074.81
2022-12-08T06:20:32.724Z,99080.16
2022-12-08T06:23:00.790Z,99079.84
2022-12-08T06:25:28.853Z,99082.28
2022-12-08T06:27:58.263Z,99071.84
2022-12-08T06:30:27.460Z,99083.94
2022-12-08T06:32:55.667Z,99072.03
2022-12-08T06:35:23.589Z,99081.16
2022-12-08T06:37:52.161Z,99071.66
2022-12-08T06:40:20.307Z,99068.16
2022-12-08T06:42:48.309Z,99078.59
2022-12-08T06:45:18.700Z,99082.03
2022-12-08T06:47:46.710Z,99062.94
2022-12-08T06:50:14.677Z,99076.38
2022-12-08T06:52:54.302Z,99086.28
2022-12-08T06:55:57.239Z,99081.63
2022-12-08T06:58:15.180Z,99088.28
2022-12-08T07:00:44.574Z,99082.28
2022-12-08T07:03:13.298Z,99087.25
2022-12-08T07:05:41.393Z,99077.88
2022-12-08T07:08:10.359Z,99075.50
2022-12-08T07:10:38.585Z,99076.59
2022-12-08T07:13:06.509Z,99081.13
2022-12-08T07:15:34.625Z,99074.53
2022-12-08T07:18:03.938Z,99073.22
2022-12-08T07:20:31.917Z,99079.88
2022-12-08T07:22:59.918Z,99071.47
2022-12-08T07:25:28.131Z,99070.50
2022-12-08T07:27:56.314Z,99082.34
2022-12-08T07:30:24.455Z,99079.75
2022-12-08T07:32:52.498Z,99085.25
2022-12-08T07:35:23.074Z,99089.63
2022-12-08T07:37:51.318Z,99088.03
2022-12-08T07:40:19.375Z,99083.34
2022-12-08T07:42:47.464Z,99067.50
2022-12-08T07:45:15.406Z,99071.69
2022-12-08T07:47:43.554Z,99078.03
2022-12-08T07:50:11.775Z,99069.31
2022-12-08T07:52:41.090Z,99078.03
2022-12-08T07:55:09.718Z,99080.47
2022-12-08T07:57:37.757Z,99061.56
2022-12-08T08:00:06.918Z,99062.88
2022-12-08T08:02:35.846Z,99057.69
2022-12-08T08:05:04.266Z,99037.66
2022-12-08T08:07:32.932Z,99047.53
2022-12-08T08:10:02.843Z,99048.50
2022-12-08T08:12:32.520Z,99047.66
2022-12-08T08:15:01.469Z,99024.09
2022-12-08T08:17:30.036Z,99048.63
2022-12-08T08:19:58.314Z,99053.41
2022-12-08T08:22:26.464Z,99048.06
2022-12-08T08:24:54.488Z,99043.91
2022-12-08T08:27:25.307Z,99038.56
2022-12-08T08:29:53.372Z,99033.53
2022-12-08T08:32:21.722Z,99043.56
2022-12-08T08:34:49.657Z,99041.78
2022-12-08T08:37:18.087Z,99041.13
2022-12-08T08:39:46.623Z,99049.03
2022-12-08T08:42:14.592Z,99045.75
2022-12-08T08:44:43.981Z,99041.53
2022-12-08T08:47:14.698Z,99034.22
2022-12-08T08:49:42.698Z,99039.72
2022-12-08T08:52:11.260Z,99039.59
2022-12-08T08:54:39.448Z,99039.09
2022-12-08T08:57:07.566Z,99045.94
2022-12-08T08:59:35.765Z,99046.25
2022-12-08T09:02:05.229Z,99047.41
2022-12-08T09:04:33.277Z,99040.50
2022-12-08T09:07:02.211Z,99050.19
2022-12-08T09:09:31.283Z,99046.13
2022-12-08T09:11:59.501Z,99056.63
2022-12-08T09:14:28.026Z,99058.09
2022-12-08T09:16:56.336Z,99048.72
2022-12-08T09:19:25.807Z,99052.28
2022-12-08T09:21:53.845Z,99034.69
2022-12-08T09:24:21.960Z,99033.50
2022-12-08T09:26:50.049Z,99038.53
2022-12-08T09:29:18.352Z,99037.41
2022-12-08T09:31:46.533Z,99034.84
2022-12-08T09:34:14.890Z,99038.88
2022-12-08T09:36:44.369Z,99040.19
2022-12-08T09:39:12.360Z,99033.25
2022-12-08T09:41:48.352Z,99029.66
2022-12-08T09:44:31.624Z,99029.97
2022-12-08T09:47:00.081Z,99039.53
2022-12-08T09:49:35.987Z,99025.94
2022-12-08T09:52:07.043Z,99031.13
2022-12-08T09:54:35.863Z,99024.66
2022-12-08T09:57:07.975Z,99024.50
2022-12-08T09:59:36.822Z,99027.38
2022-12-08T10:02:11.303Z,99026.69
2022-12-08T10:04:43.280Z,99025.97
2022-12-08T10:07:18.049Z,99026.28
2022-12-08T10:09:51.189Z,99030.78
2022-12-08T10:12:21.442Z,99026.13
2022-12-08T10:14:56.420Z,99025.00
2022-12-08T10:17:27.156Z,99031.28
2022-12-08T10:19:59.067Z,99031.13
2022-12-08T10:22:33.045Z,99029.19
2022-12-08T10:25:01.969Z,99034.03
2022-12-08T10:27:31.374Z,99030.47
2022-12-08T10:29:59.332Z,99023.16
2022-12-08T10:32:30.870Z,99027.84
2022-12-08T10:35:03.903Z,99028.47
2022-12-08T10:37:33.335Z,99028.13
2022-12-08T10:40:03.088Z,99031.03
2022-12-08T10:42:36.681Z,99021.19
2022-12-08T10:45:19.782Z,99026.06
2022-12-08T10:47:58.642Z,99031.25
2022-12-08T10:50:30.252Z,99028.63
2022-12-08T10:53:01.233Z,99030.72
2022-12-08T10:55:29.962Z,99030.72
2022-12-08T10:57:58.104Z,99021.16
2022-12-08T11:00:27.959Z,99017.91
2022-12-08T11:02:58.729Z,99020.38
2022-12-08T11:05:29.255Z,99007.38
2022-12-08T11:07:57.988Z,99018.38
2022-12-08T11:10:33.636Z,99014.69
2022-12-08T11:13:02.958Z,99019.94
2022-12-08T11:15:34.852Z,99016.63
2022-12-08T11:18:07.848Z,99021.03
2022-12-08T11:20:39.557Z,99017.41
2022-12-08T11:23:20.129Z,99019.97
2022-12-08T11:25:50.729Z,99010.56
2022-12-08T11:28:21.417Z,99009.75
2022-12-08T11:30:51.611Z,99006.53
2022-12-08T11:33:23.709Z,99008.03
2022-12-08T11:35:53.971Z,99006.06
2022-12-08T11:38:23.952Z,99023.34
2022-12-08T11:40:54.474Z,99012.31
2022-12-08T11:43:24.886Z,99021.13
2022-12-08T11:45:57.732Z,99007.19
2022-12-08T11:48:28.282Z,99007.84
2022-12-08T11:50:59.844Z,99001.09
2022-12-08T11:53:30.738Z,99007.06
2022-12-08T11:56:02.194Z,99016.03
2022-12-08T11:58:36.277Z,99025.94
2022-12-08T12:01:04.174Z,99020.78
2022-12-08T12:03:35.264Z,99030.66
2022-12-08T12:06:38.320Z,99028.06
2022-12-08T12:09:14.155Z,99035.03
2022-12-08T12:12:05.830Z,99031.94
2022-12-08T12:14:46.145Z,99030.84
2022-12-08T12:17:24.061Z,99026.47
2022-12-08T12:19:53.492Z,99030.66
2022-12-08T12:22:23.569Z,99028.59
2022-12-08T12:24:53.357Z,99008.69
2022-12-08T12:27:26.315Z,99026.19
2022-12-08T12:29:56.528Z,99032.47
2022-12-08T12:32:25.083Z,99038.44
2022-12-08T12:34:54.724Z,99034.81
2022-12-08T12:37:24.550Z,99045.22
2022-12-08T12:39:57.111Z,99035.50
2022-12-08T12:42:43.804Z,99040.03
2022-12-08T12:45:13.300Z,99040.75
2022-12-08T12:47:52.557Z,99043.50
2022-12-08T12:50:43.414Z,99048.81
2022-12-08T12:53:26.173Z,99053.16
2022-12-08T12:55:55.487Z,99050.59
2022-12-08T12:58:35.905Z,99055.13
2022-12-08T13:01:22.420Z,99055.28
2022-12-08T13:03:52.888Z,99051.56
2022-12-08T13:06:24.688Z,99050.63
2022-12-08T13:08:54.561Z,99064.53
2022-12-08T13:11:23.390Z,99045.13
2022-12-08T13:13:59.137Z,99049.66
2022-12-08T13:16:28.256Z,99060.16
2022-12-08T13:18:58.978Z,99048.38
2022-12-08T13:21:32.913Z,99052.09
2022-12-08T13:24:17.846Z,99043.50
2022-12-08T13:26:46.824Z,99044.34
2022-12-08T13:29:18.245Z,99043.00
2022-12-08T13:31:50.876Z,99055.94
2022-12-08T13:34:21.370Z,99051.88
2022-12-08T13:36:52.237Z,99058.19
2022-12-08T13:39:23.270Z,99054.59
2022-12-08T13:41:56.151Z,99053.03
2022-12-08T13:47:37.102Z,99040.09
2022-12-08T13:58:41.319Z,99037.78
2022-12-08T14:01:15.381Z,99052.72
2022-12-08T14:04:21.711Z,99050.41
2022-12-08T14:06:38.893Z,99046.66
2022-12-08T14:09:11.082Z,99056.34
2022-12-08T14:11:41.350Z,99048.28
2022-12-08T14:14:10.840Z,99049.38
2022-12-08T14:16:41.249Z,99063.78
2022-12-08T14:19:17.715Z,99059.41
2022-12-08T14:21:49.649Z,99069.47
2022-12-08T14:24:17.603Z,99073.66
2022-12-08T14:26:47.285Z,99079.47
2022-12-08T14:29:25.710Z,99072.84
2022-12-08T14:31:56.105Z,99085.75
2022-12-08T14:34:24.060Z,99082.06
2022-12-08T14:36:52.779Z,99071.41
2022-12-08T14:39:21.449Z,99087.53
2022-12-08T14:42:00.403Z,99074.91
2022-12-08T14:44:32.271Z,99089.31
2022-12-08T14:47:09.271Z,99088.16
2022-12-08T14:49:38.491Z,99097.91
2022-12-08T14:52:11.050Z,99099.66
2022-12-08T14:54:40.316Z,99107.94
2022-12-08T14:57:08.956Z,99102.91
2022-12-08T14:59:38.215Z,99111.16
2022-12-08T15:02:22.885Z,99115.66
2022-12-08T15:04:51.872Z,99113.25
2022-12-08T15:07:20.800Z,99122.13
2022-12-08T15:09:50.200Z,99122.13
2022-12-08T15:12:26.716Z,99129.38
2022-12-08T15:14:56.679Z,99127.91
2022-12-08T15:17:34.642Z,99132.75
2022-12-08T15:20:03.723Z,99139.38
2022-12-08T15:22:32.679Z,99137.28
2022-12-08T15:25:00.730Z,99126.72
2022-12-08T15:27:28.937Z,99142.91
2022-12-08T15:29:57.044Z,99145.50
2022-12-08T15:32:25.018Z,99150.16
2022-12-08T16:05:40.386Z,99165.31
2022-12-08T16:07:41.867Z,99159.50
2022-12-08T16:10:12.660Z,99157.19
2022-12-08T16:13:55.073Z,99161.91
2022-12-08T16:15:57.090Z,99155.41
2022-12-08T16:18:28.274Z,99163.66
2022-12-08T16:21:09.531Z,99158.47
2022-12-08T16:23:44.573Z,99160.13
2022-12-08T16:29:02.609Z,99165.13
2022-12-08T16:31:30.890Z,99164.63
2022-12-08T16:33:59.094Z,99161.09
2022-12-08T16:36:28.512Z,99169.16
2022-12-08T16:38:56.487Z,99168.53
2022-12-08T16:41:41.846Z,99174.00
2022-12-08T16:44:10.026Z,99165.31
2022-12-08T16:46:38.076Z,99154.94
2022-12-08T16:49:06.138Z,99167.25
2022-12-08T16:51:35.482Z,99163.38
2022-12-08T16:54:03.752Z,99164.34
2022-12-08T16:56:33.418Z,99176.25
2022-12-08T16:59:01.957Z,99169.47
2022-12-08T17:01:30.158Z,99175.44
2022-12-08T17:06:56.495Z,99171.38
2022-12-08T17:09:24.697Z,99161.03
2022-12-08T17:11:52.665Z,99162.22
2022-12-08T17:14:20.791Z,99162.47
2022-12-08T17:16:48.793Z,99165.34
2022-12-08T17:19:17.386Z,99154.28
2022-12-08T17:21:45.662Z,99166.78
2022-12-08T17:24:18.684Z,99158.72
2022-12-08T17:26:49.930Z,99158.56
2022-12-08T17:29:18.946Z,99163.03
2022-12-08T17:31:47.905Z,99172.75
2022-12-08T17:34:16.158Z,99166.91
2022-12-08T17:36:44.398Z,99175.47
2022-12-08T17:39:18.431Z,99169.97
2022-12-08T17:41:48.364Z,99166.72
2022-12-08T17:44:17.494Z,99170.13
2022-12-08T17:46:52.120Z,99180.31
2022-12-08T17:49:22.117Z,99176.41
2022-12-08T17:51:50.817Z,99183.09
2022-12-08T17:54:19.392Z,99174.69
2022-12-08T17:56:48.798Z,99177.75
2022-12-08T17:59:16.912Z,99182.28
2022-12-08T18:01:46.871Z,99178.59
2022-12-08T18:04:14.943Z,99179.44
2022-12-08T18:06:42.923Z,99178.19
2022-12-08T18:09:10.979Z,99181.25
2022-12-08T18:11:44.145Z,99184.16
2022-12-08T18:14:14.346Z,99178.94
2022-12-08T18:16:43.485Z,99182.34
2022-12-08T18:19:12.122Z,99189.94
2022-12-08T18:21:41.074Z,99182.81
2022-12-08T18:24:09.805Z,99167.09
2022-12-08T18:26:37.879Z,99177.94
2022-12-08T18:29:05.851Z,99192.53
2022-12-08T18:31:35.439Z,99188.16
2022-12-08T18:34:03.510Z,99190.13
2022-12-08T18:36:31.509Z,99180.72
2022-12-08T18:38:59.590Z,99189.78
2022-12-08T18:41:28.501Z,99198.03
2022-12-08T18:43:57.253Z,99203.09
2022-12-08T18:46:25.691Z,99202.09
2022-12-08T18:48:55.228Z,99201.28
2022-12-08T18:51:24.268Z,99200.44
2022-12-08T18:53:52.943Z,99199.13
2022-12-08T18:56:25.227Z,99201.06
2022-12-08T18:58:55.398Z,99201.53
2022-12-08T19:01:26.636Z,99205.59
2022-12-08T19:04:26.867Z,99210.31
2022-12-08T19:06:45.249Z,99205.47
2022-12-08T19:09:14.253Z,99193.25
2022-12-08T19:11:42.203Z,99197.47
2022-12-08T19:14:10.730Z,99185.31
2022-12-08T19:16:40.537Z,99195.16
2022-12-08T19:19:10.124Z,99193.53
2022-12-08T19:21:44.553Z,99210.38
2022-12-08T19:24:14.230Z,99210.44
2022-12-08T19:26:43.538Z,99213.03
2022-12-08T19:29:12.089Z,99204.88
2022-12-08T19:31:40.450Z,99208.94
2022-12-08T19:34:10.868Z,99209.09
2022-12-08T19:36:42.726Z,99214.47
2022-12-08T19:39:32.337Z,99221.91
2022-12-08T19:42:18.051Z,99215.56
2022-12-08T19:44:55.287Z,99211.00
2022-12-08T19:47:24.438Z,99215.03
2022-12-08T19:49:55.046Z,99217.63
2022-12-08T19:52:23.267Z,99211.00
2022-12-08T19:54:51.160Z,99207.91
2022-12-08T19:57:20.576Z,99201.56
2022-12-08T19:59:54.632Z,99209.69
2022-12-08T20:02:24.565Z,99205.13
2022-12-08T20:04:54.205Z,99204.84
2022-12-08T20:07:22.226Z,99196.63
2022-12-08T20:09:50.252Z,99204.78
2022-12-08T20:12:18.297Z,99209.97
2022-12-08T20:14:47.081Z,99207.59
2022-12-08T20:17:15.011Z,99209.06
2022-12-08T20:19:42.943Z,99217.00
2022-12-08T20:22:12.412Z,99223.59
2022-12-08T20:24:40.488Z,99232.00
2022-12-08T20:27:08.611Z,99224.22
2022-12-08T20:29:38.395Z,99233.28
2022-12-08T20:32:06.458Z,99229.22
2022-12-08T20:34:35.376Z,99226.47
2022-12-08T20:37:03.422Z,99225.44
2022-12-08T20:39:32.772Z,99216.47
2022-12-08T20:42:00.913Z,99216.31
2022-12-08T20:44:30.314Z,99223.88
2022-12-08T20:46:58.317Z,99223.81
2022-12-08T20:49:31.135Z,99222.31
2022-12-08T20:52:02.306Z,99226.81
2022-12-08T20:54:30.310Z,99226.28
2022-12-08T20:56:59.668Z,99224.66
2022-12-08T20:59:28.043Z,99221.09
2022-12-08T21:01:56.372Z,99231.94
2022-12-08T21:04:24.713Z,99239.78
2022-12-08T21:06:53.065Z,99230.78
2022-12-08T21:09:21.098Z,99232.88
2022-12-08T21:11:49.224Z,99231.41
2022-12-08T21:14:18.888Z,99219.78
2022-12-08T21:16:47.223Z,99228.53
2022-12-08T21:19:15.280Z,99230.50
2022-12-08T21:21:43.564Z,99214.94
2022-12-08T21:24:11.832Z,99213.19
2022-12-08T21:26:40.093Z,99215.38
2022-12-08T21:29:08.325Z,99221.03
2022-12-08T21:31:37.913Z,99218.72
2022-12-08T21:34:06.207Z,99218.72
2022-12-08T21:36:34.408Z,99224.88
2022-12-08T21:39:02.983Z,99223.50
2022-12-08T21:41:48.727Z,99225.75
2022-12-08T21:44:18.756Z,99226.84
2022-12-08T21:46:48.336Z,99236.53
2022-12-08T21:49:16.669Z,99245.41
2022-12-08T21:51:44.733Z,99236.88
2022-12-08T21:54:18.255Z,99243.06
2022-12-08T21:56:47.352Z,99234.84
2022-12-08T21:59:15.484Z,99237.81
2022-12-08T22:01:43.918Z,99236.31
2022-12-08T22:04:13.746Z,99242.59
2022-12-08T22:06:41.824Z,99246.44
2022-12-08T22:09:13.492Z,99241.94
2022-12-08T22:11:42.162Z,99240.28
2022-12-08T22:14:14.439Z,99248.22
2022-12-08T22:16:43.092Z,99245.81
2022-12-08T22:19:11.373Z,99247.44
2022-12-08T22:21:41.602Z,99245.47
2022-12-08T22:24:09.971Z,99235.25
2022-12-08T22:26:38.196Z,99239.25
2022-12-08T22:29:06.382Z,99241.94
2022-12-08T22:31:34.457Z,99240.97
2022-12-08T22:34:02.505Z,99238.44
2022-12-08T22:36:30.577Z,99246.59
2022-12-08T22:39:00.072Z,99251.16
2022-12-08T22:41:28.117Z,99250.81
2022-12-08T22:43:56.041Z,99245.91
2022-12-08T22:46:25.197Z,99255.56
2022-12-08T22:48:54.220Z,99247.94
2022-12-08T22:51:22.428Z,99253.41
2022-12-08T22:53:50.832Z,99249.22
2022-12-08T22:56:20.826Z,99259.34
2022-12-08T22:58:48.828Z,99259.66
2022-12-08T23:01:24.551Z,99257.38
2022-12-08T23:03:52.641Z,99254.16
2022-12-08T23:06:21.075Z,99259.16
2022-12-08T23:08:49.266Z,99255.44
2022-12-08T23:11:17.285Z,99250.78
2022-12-08T23:13:46.751Z,99254.44
2022-12-08T23:16:15.276Z,99261.59
2022-12-08T23:18:44.614Z,99257.72
2022-12-08T23:21:13.848Z,99257.19
2022-12-08T23:23:42.135Z,99255.09
2022-12-08T23:26:16.299Z,99264.00
2022-12-08T23:28:44.343Z,99256.66
2022-12-08T23:31:13.895Z,99266.06
2022-12-08T23:33:41.934Z,99258.81
2022-12-08T23:36:11.185Z,99257.69
2022-12-08T23:38:39.397Z,99258.66
2022-12-08T23:41:08.629Z,99258.66
2022-12-08T23:43:36.608Z,99250.88
2022-12-08T23:46:05.411Z,99252.66
2022-12-08T23:48:35.814Z,99264.47
2022-12-08T23:51:03.863Z,99265.47
2022-12-08T23:53:31.973Z,99260.09
2022-12-08T23:56:01.457Z,99262.59
2022-12-08T23:58:29.530Z,99255.78
